9D7

Cando Municipal Airport

Cando, North Dakota, USA
METAR K9D7 110155Z AUTO 00000KT 10SM CLR M12/M12 A2997 RMK AO2
Observed Flight Rules
Dec-11 @ 01:55 UTC (30 minutes ago) Visual Flight Rules
Visibility Clouds
10 miles
  • Clear skies
Temperatures Readings
Current -12°C / 10°F
Dewpoint -12°C / 10°F
Humidity 100%
Altimeter 29.97" Hg
Pressure 1015 hPa
Elevation 452
METAR K9D7 110155Z AUTO 00000KT 10SM CLR M12/M12 A2997 RMK AO2
Observed Flight Rules
Dec-11 @ 01:55 UTC
(30 minutes ago)
VFR
Clouds
  • Clear skies
Temperature Dewpoint
-12°C / 10°F -12°C / 10°F
Humidity Altimeter Pressure
100% 29.97" Hg 1015 hPa